Time;durP1;ratioP1;P1;durP2;ratioP2;P2;SDS_P1;SDS_P2;PMS_P1;PMS_P2;Temp;Humidity;BMP_temperature;BMP_pressure;BME280_temperature;BME280_humidity;BME280_pressure;Samples;Min_cycle;Max_cycle;Signal;HPM_P1;HPM_P2
2022/03/05 00:01:32;;;;;;;6.27;3.40;;;8.00;1.00;;;;;;5096498;28;20535;-77
2022/03/05 00:04:00;;;;;;;6.80;4.27;;;8.10;1.00;;;;;;5090659;28;20558;-77
2022/03/05 00:06:29;;;;;;;9.80;5.43;;;8.10;1.00;;;;;;5092253;28;20474;-76
2022/03/05 00:08:57;;;;;;;6.50;5.03;;;8.00;1.00;;;;;;5091655;28;20996;-76
2022/03/05 00:11:25;;;;;;;9.03;4.97;;;7.90;1.00;;;;;;5092431;28;20463;-76
2022/03/05 00:13:54;;;;;;;8.43;5.10;;;7.80;1.00;;;;;;5083875;28;20470;-77
2022/03/05 00:16:23;;;;;;;5.60;4.30;;;7.80;1.00;;;;;;5089049;28;20472;-73
2022/03/05 00:18:51;;;;;;;11.20;6.20;;;7.70;1.00;;;;;;5085063;28;20458;-76
2022/03/05 00:21:19;;;;;;;10.90;6.37;;;7.80;1.00;;;;;;5085560;28;20453;-77
2022/03/05 00:23:47;;;;;;;11.47;6.70;;;7.60;1.00;;;;;;5085318;28;20484;-76
2022/03/05 00:26:16;;;;;;;16.47;7.40;;;7.50;1.00;;;;;;5091435;28;20489;-75
2022/03/05 00:28:44;;;;;;;8.60;5.17;;;7.50;1.00;;;;;;5083716;28;20452;-76
2022/03/05 00:31:14;;;;;;;11.47;6.50;;;7.40;1.00;;;;;;5081534;28;20455;-75
2022/03/05 00:33:42;;;;;;;8.83;6.43;;;7.40;1.00;;;;;;5092331;28;20458;-76
2022/03/05 00:36:10;;;;;;;10.33;6.97;;;7.30;1.00;;;;;;5088870;28;20820;-75
2022/03/05 00:38:39;;;;;;;11.33;7.17;;;7.20;1.00;;;;;;5087672;28;20442;-75
2022/03/05 00:41:08;;;;;;;12.60;5.13;;;7.10;1.00;;;;;;5090413;28;20484;-75
2022/03/05 00:43:36;;;;;;;7.20;3.97;;;7.20;1.00;;;;;;5084926;28;20470;-78
2022/03/05 00:46:05;;;;;;;4.60;3.20;;;7.40;1.00;;;;;;5091419;28;20477;-76
2022/03/05 00:48:34;;;;;;;5.73;3.47;;;7.40;1.00;;;;;;5087068;28;20512;-75
2022/03/05 00:51:04;;;;;;;3.57;3.03;;;7.50;1.00;;;;;;5087532;28;20455;-77
2022/03/05 00:53:32;;;;;;;5.57;3.60;;;7.40;1.00;;;;;;5102364;28;20454;-75
2022/03/05 00:56:00;;;;;;;6.57;2.90;;;7.40;1.00;;;;;;5091545;28;20502;-75
2022/03/05 00:58:29;;;;;;;3.90;2.80;;;7.40;1.00;;;;;;5089683;28;20475;-75
2022/03/05 01:00:57;;;;;;;3.40;2.73;;;7.50;1.00;;;;;;5092408;28;20463;-76
2022/03/05 01:03:26;;;;;;;4.33;3.20;;;7.50;1.00;;;;;;5085555;28;20476;-75
2022/03/05 01:05:55;;;;;;;7.80;3.83;;;7.60;1.00;;;;;;5087986;28;20444;-76
2022/03/05 01:08:24;;;;;;;3.73;2.70;;;7.60;1.00;;;;;;5084817;28;20453;-77
2022/03/05 01:10:52;;;;;;;6.10;2.07;;;7.70;1.00;;;;;;5089954;28;20470;-77
2022/03/05 01:13:20;;;;;;;6.13;3.43;;;7.60;1.00;;;;;;5084181;28;20461;-74
2022/03/05 01:15:48;;;;;;;4.97;3.03;;;7.50;1.00;;;;;;5086409;28;20864;-76
2022/03/05 01:18:16;;;;;;;5.27;3.70;;;7.60;1.00;;;;;;5086423;28;20459;-77
2022/03/05 01:20:45;;;;;;;6.00;3.47;;;7.50;1.00;;;;;;5092708;28;20999;-76
2022/03/05 01:23:14;;;;;;;6.33;4.80;;;7.30;1.00;;;;;;5084773;28;20458;-76
2022/03/05 01:25:42;;;;;;;7.77;5.00;;;7.20;1.00;;;;;;5087083;28;20860;-77
2022/03/05 01:28:10;;;;;;;11.17;5.27;;;7.10;1.00;;;;;;5084887;28;20982;-76
2022/03/05 01:30:39;;;;;;;11.27;5.90;;;6.90;1.00;;;;;;5085748;28;20459;-78
2022/03/05 01:33:08;;;;;;;9.53;5.80;;;6.80;1.00;;;;;;5089873;28;20459;-77
2022/03/05 01:35:36;;;;;;;10.83;7.13;;;6.80;1.00;;;;;;5085869;28;20458;-76
2022/03/05 01:38:04;;;;;;;12.97;7.30;;;6.80;1.00;;;;;;5086105;28;20444;-76
2022/03/05 01:40:35;;;;;;;10.10;7.00;;;6.90;1.00;;;;;;5102090;28;20462;-76
2022/03/05 01:43:03;;;;;;;11.07;6.50;;;6.70;1.00;;;;;;5082815;28;20454;-77
2022/03/05 01:45:31;;;;;;;9.03;6.00;;;6.60;1.00;;;;;;5090022;28;20477;-77
2022/03/05 01:48:00;;;;;;;9.33;5.57;;;6.70;1.00;;;;;;5083178;28;20529;-78
2022/03/05 01:50:29;;;;;;;8.47;5.40;;;6.80;1.00;;;;;;5086619;28;20466;-75
2022/03/05 01:52:57;;;;;;;9.87;6.17;;;6.90;1.00;;;;;;5083901;28;21195;-78
2022/03/05 01:55:26;;;;;;;11.40;6.90;;;6.50;1.00;;;;;;5083180;28;20461;-77
2022/03/05 01:57:55;;;;;;;12.57;6.43;;;6.60;1.00;;;;;;5084736;28;20855;-76
2022/03/05 02:00:23;;;;;;;10.63;7.47;;;6.70;1.00;;;;;;5085207;28;20450;-78
2022/03/05 02:02:52;;;;;;;9.67;6.97;;;6.70;1.00;;;;;;5088378;28;20813;-77
2022/03/05 02:05:21;;;;;;;12.40;6.30;;;6.70;1.00;;;;;;5080942;28;20504;-76
2022/03/05 02:07:49;;;;;;;10.93;6.57;;;6.70;1.00;;;;;;5083889;28;20446;-76
2022/03/05 02:10:17;;;;;;;10.17;6.77;;;6.60;1.00;;;;;;5085343;28;20539;-76
2022/03/05 02:12:46;;;;;;;8.43;5.80;;;6.60;1.00;;;;;;5078616;28;20441;-76
2022/03/05 02:15:15;;;;;;;9.87;5.63;;;6.50;1.00;;;;;;5085715;28;20458;-75
2022/03/05 02:17:44;;;;;;;11.70;6.40;;;6.50;1.00;;;;;;5083942;28;20453;-75
2022/03/05 02:20:12;;;;;;;9.60;7.23;;;6.40;1.00;;;;;;5088707;28;20965;-76
2022/03/05 02:22:42;;;;;;;15.47;6.60;;;6.40;1.00;;;;;;5090725;28;20469;-75
2022/03/05 02:25:10;;;;;;;11.00;6.30;;;6.30;1.00;;;;;;5091612;28;20485;-75
2022/03/05 02:27:39;;;;;;;11.77;6.40;;;6.30;1.00;;;;;;5084818;28;21381;-78
2022/03/05 02:30:08;;;;;;;6.90;5.70;;;6.60;1.00;;;;;;5082253;28;20450;-76
2022/03/05 02:32:37;;;;;;;9.23;6.57;;;6.40;1.00;;;;;;5078387;28;20919;-75
2022/03/05 02:35:06;;;;;;;9.40;5.73;;;6.30;1.00;;;;;;5082172;28;20477;-77
2022/03/05 02:37:34;;;;;;;9.10;5.47;;;6.30;1.00;;;;;;5087344;28;20825;-75
2022/03/05 02:40:04;;;;;;;9.00;6.50;;;6.30;1.00;;;;;;5088087;28;20853;-74
2022/03/05 02:42:32;;;;;;;7.20;6.43;;;6.20;1.00;;;;;;5086285;28;20466;-75
2022/03/05 02:45:00;;;;;;;8.67;4.73;;;6.40;1.00;;;;;;5085219;28;20491;-75
2022/03/05 02:47:29;;;;;;;10.40;6.30;;;6.30;1.00;;;;;;5086768;28;20450;-75
2022/03/05 02:49:57;;;;;;;12.80;6.43;;;6.10;1.00;;;;;;5088742;28;20442;-76
2022/03/05 02:52:25;;;;;;;8.07;5.90;;;6.10;1.00;;;;;;5091461;28;20838;-75
2022/03/05 02:54:53;;;;;;;9.33;5.23;;;6.10;1.00;;;;;;5086488;28;20450;-76
2022/03/05 02:57:23;;;;;;;10.50;5.53;;;6.20;1.00;;;;;;5090604;28;20914;-75
2022/03/05 02:59:51;;;;;;;7.40;5.00;;;6.10;1.00;;;;;;5082517;28;20458;-76
2022/03/05 03:02:19;;;;;;;10.10;6.10;;;6.10;1.00;;;;;;5086928;28;20561;-76
2022/03/05 03:04:48;;;;;;;8.80;5.90;;;6.00;1.00;;;;;;5090434;28;20444;-75
2022/03/05 03:07:16;;;;;;;11.80;6.80;;;5.80;1.00;;;;;;5083690;28;20457;-75
2022/03/05 03:09:44;;;;;;;8.27;5.63;;;5.80;1.00;;;;;;5083034;28;20874;-76
2022/03/05 03:12:13;;;;;;;6.87;5.57;;;5.90;1.00;;;;;;5085987;28;20434;-75
2022/03/05 03:14:42;;;;;;;9.80;6.30;;;5.90;1.00;;;;;;5091002;28;20491;-76
2022/03/05 03:17:11;;;;;;;14.03;7.10;;;5.90;1.00;;;;;;5082786;28;21039;-76
2022/03/05 03:19:39;;;;;;;8.07;5.30;;;6.10;1.00;;;;;;5087864;28;20456;-76
2022/03/05 03:22:07;;;;;;;9.67;7.13;;;6.20;1.00;;;;;;5085294;28;20462;-75
2022/03/05 03:24:36;;;;;;;10.73;7.07;;;5.70;1.00;;;;;;5088240;28;20441;-74
2022/03/05 03:27:05;;;;;;;17.00;7.10;;;5.70;1.00;;;;;;5086704;28;20503;-77
2022/03/05 03:29:33;;;;;;;12.07;7.10;;;5.70;1.00;;;;;;5072626;28;20462;-76
2022/03/05 03:32:03;;;;;;;13.10;6.80;;;5.80;1.00;;;;;;5086614;28;20866;-76
2022/03/05 03:34:32;;;;;;;12.73;7.30;;;5.70;1.00;;;;;;5089998;28;20485;-76
2022/03/05 03:37:00;;;;;;;11.50;7.17;;;5.60;1.00;;;;;;5086988;28;20462;-76
2022/03/05 03:39:28;;;;;;;13.47;6.30;;;5.70;1.00;;;;;;5085975;28;20462;-76
2022/03/05 03:41:56;;;;;;;8.80;5.70;;;5.70;1.00;;;;;;5076811;28;20453;-76
2022/03/05 03:44:24;;;;;;;11.17;6.30;;;5.70;1.00;;;;;;5078919;28;20465;-75
2022/03/05 03:46:53;;;;;;;12.93;6.27;;;5.70;1.00;;;;;;5083590;28;20584;-75
2022/03/05 03:49:23;;;;;;;13.97;6.40;;;5.70;1.00;;;;;;5080382;28;20612;-75
2022/03/05 03:51:51;;;;;;;10.48;5.65;;;5.60;1.00;;;;;;5090506;28;20461;-75
2022/03/05 03:54:20;;;;;;;11.70;5.60;;;5.50;1.00;;;;;;5084881;28;20249;-75
2022/03/05 03:56:48;;;;;;;11.25;7.25;;;5.50;1.00;;;;;;5078400;28;20265;-75
2022/03/05 03:59:16;;;;;;;9.03;6.37;;;5.50;1.00;;;;;;5080116;28;20257;-76
2022/03/05 04:01:44;;;;;;;10.15;6.13;;;5.50;1.00;;;;;;5081188;28;20511;-75
2022/03/05 04:04:12;;;;;;;11.02;6.70;;;5.40;1.00;;;;;;5084457;28;20199;-75
2022/03/05 04:09:28;;;;;;;12.70;6.97;;;5.40;1.00;;;;;;5086856;28;20447;-75
2022/03/05 04:11:56;;;;;;;9.40;6.28;;;5.50;1.00;;;;;;5087307;28;20450;-75
2022/03/05 04:14:24;;;;;;;8.73;5.83;;;5.40;1.00;;;;;;5090305;28;20200;-75
2022/03/05 04:16:52;;;;;;;7.30;4.55;;;5.50;1.00;;;;;;5090841;28;20473;-75
2022/03/05 04:19:20;;;;;;;10.73;6.40;;;5.50;1.00;;;;;;5086651;28;20208;-75
2022/03/05 04:21:50;;;;;;;9.73;6.50;;;5.40;1.00;;;;;;5089633;28;20442;-75
2022/03/05 04:24:19;;;;;;;10.43;6.28;;;5.30;1.00;;;;;;5088935;28;20700;-76
2022/03/05 04:26:47;;;;;;;10.15;6.25;;;5.30;1.00;;;;;;5086499;28;20581;-75
2022/03/05 04:29:15;;;;;;;10.25;5.68;;;5.30;1.00;;;;;;5084490;28;20192;-75
2022/03/05 04:31:43;;;;;;;10.73;6.03;;;5.40;1.00;;;;;;5092411;28;20570;-76
2022/03/05 04:34:12;;;;;;;10.77;5.70;;;5.40;1.00;;;;;;5090463;28;20192;-76
2022/03/05 04:36:40;;;;;;;13.30;7.40;;;5.30;1.00;;;;;;5092957;28;20235;-76
2022/03/05 04:39:10;;;;;;;9.93;5.80;;;5.30;1.00;;;;;;5086568;28;20446;-76
2022/03/05 04:41:39;;;;;;;9.93;6.10;;;5.50;1.00;;;;;;5089919;28;20538;-75
2022/03/05 04:44:08;;;;;;;14.77;6.45;;;5.10;1.00;;;;;;5089728;28;20933;-76
2022/03/05 04:46:37;;;;;;;10.10;5.70;;;5.10;1.00;;;;;;5096655;28;20899;-77
2022/03/05 04:49:06;;;;;;;10.18;6.97;;;5.10;1.00;;;;;;5083313;28;20453;-75
2022/03/05 04:51:34;;;;;;;9.25;5.50;;;5.00;1.00;;;;;;5083533;28;20202;-75
2022/03/05 04:54:02;;;;;;;13.48;6.13;;;5.00;1.00;;;;;;5087359;28;20204;-76
2022/03/05 04:56:32;;;;;;;7.63;5.15;;;5.10;1.00;;;;;;5087177;28;20292;-76
2022/03/05 04:59:00;;;;;;;9.63;6.00;;;5.00;1.00;;;;;;5082299;28;20199;-75
2022/03/05 05:01:28;;;;;;;7.95;6.50;;;4.80;1.00;;;;;;5087991;28;20303;-78
2022/03/05 05:03:57;;;;;;;9.63;5.77;;;4.70;1.00;;;;;;5087068;28;20188;-75
2022/03/05 05:06:25;;;;;;;9.68;5.95;;;4.70;1.00;;;;;;5088107;28;20988;-76
2022/03/05 05:08:54;;;;;;;9.93;5.03;;;4.70;1.00;;;;;;5089629;28;20249;-77
2022/03/05 05:11:22;;;;;;;12.25;6.70;;;4.70;1.00;;;;;;5090701;28;20741;-76
2022/03/05 05:13:51;;;;;;;7.38;6.40;;;4.80;1.00;;;;;;5082494;28;20266;-77
2022/03/05 05:16:19;;;;;;;9.90;6.53;;;4.70;1.00;;;;;;5090676;28;20219;-76
2022/03/05 05:21:29;;;;;;;7.00;5.10;;;4.80;1.00;;;;;;5081348;28;20563;-76
2022/03/05 05:23:58;;;;;;;12.40;5.97;;;4.80;1.00;;;;;;5086766;28;20568;-76
2022/03/05 05:26:26;;;;;;;8.85;5.30;;;4.70;1.00;;;;;;5086674;28;20305;-77
2022/03/05 05:28:55;;;;;;;8.85;5.43;;;4.80;1.00;;;;;;5085643;28;20282;-77
2022/03/05 05:31:24;;;;;;;8.52;5.70;;;4.60;1.00;;;;;;5086570;28;20693;-77
2022/03/05 05:33:52;;;;;;;8.88;5.68;;;4.80;1.00;;;;;;5089826;28;20619;-77
2022/03/05 05:36:20;;;;;;;12.32;5.80;;;4.60;1.00;;;;;;5087135;28;20216;-76
2022/03/05 05:38:48;;;;;;;14.43;6.18;;;4.70;1.00;;;;;;5086692;28;20187;-76
2022/03/05 05:41:18;;;;;;;10.70;6.03;;;4.60;1.00;;;;;;5088452;28;20207;-77
2022/03/05 05:43:46;;;;;;;10.98;5.90;;;4.90;1.00;;;;;;5088014;28;20200;-76
2022/03/05 05:46:15;;;;;;;9.10;4.93;;;4.50;1.00;;;;;;5088975;28;20711;-75
2022/03/05 05:48:54;;;;;;;10.57;5.47;;;4.40;1.00;;;;;;5077247;28;20455;-76
2022/03/05 05:51:22;;;;;;;7.25;5.13;;;4.40;1.00;;;;;;5089482;28;20188;-77
2022/03/05 05:53:56;;;;;;;9.13;5.65;;;4.30;1.00;;;;;;5088027;28;20200;-76
2022/03/05 05:56:25;;;;;;;8.85;5.47;;;4.30;1.00;;;;;;5090823;28;20698;-76
2022/03/05 05:58:53;;;;;;;9.73;5.43;;;4.30;1.00;;;;;;5088131;28;20208;-77
2022/03/05 06:01:23;;;;;;;7.90;4.95;;;4.60;1.00;;;;;;5080818;28;20224;-77
2022/03/05 06:03:52;;;;;;;8.87;4.70;;;4.50;1.00;;;;;;5089026;28;20208;-77
2022/03/05 06:06:21;;;;;;;8.60;4.70;;;4.50;1.00;;;;;;5088304;28;20558;-76
2022/03/05 06:08:49;;;;;;;11.07;5.67;;;4.80;1.00;;;;;;5089556;28;20913;-77
2022/03/05 06:11:17;;;;;;;9.50;4.93;;;4.40;1.00;;;;;;5088124;28;20815;-77
2022/03/05 06:13:46;;;;;;;9.60;5.32;;;4.40;1.00;;;;;;5088948;28;20947;-76
2022/03/05 06:16:14;;;;;;;9.10;5.25;;;4.40;1.00;;;;;;5087404;28;20215;-76
2022/03/05 06:18:44;;;;;;;7.93;4.73;;;4.40;1.00;;;;;;5090333;28;20257;-76
2022/03/05 06:21:12;;;;;;;6.77;5.10;;;4.50;1.00;;;;;;5085301;28;20515;-77
2022/03/05 06:23:40;;;;;;;10.03;5.67;;;4.50;1.00;;;;;;5083015;28;20455;-77
2022/03/05 06:26:08;;;;;;;9.30;5.28;;;4.50;1.00;;;;;;5079987;28;20476;-78
2022/03/05 06:28:37;;;;;;;9.85;4.88;;;4.50;1.00;;;;;;5086777;28;21015;-77
2022/03/05 06:31:05;;;;;;;8.05;4.55;;;4.70;1.00;;;;;;5091496;28;20202;-77
2022/03/05 06:33:33;;;;;;;10.18;4.85;;;4.40;1.00;;;;;;5088724;28;20247;-76
2022/03/05 06:36:03;;;;;;;8.65;5.28;;;4.60;1.00;;;;;;5092389;28;20222;-76
2022/03/05 06:38:31;;;;;;;10.70;5.63;;;4.40;1.00;;;;;;5082637;28;20789;-79
2022/03/05 06:41:00;;;;;;;13.10;6.00;;;4.40;1.00;;;;;;5085736;28;20188;-77
2022/03/05 06:43:28;;;;;;;9.63;6.75;;;4.30;1.00;;;;;;5085954;28;20858;-77
2022/03/05 06:45:57;;;;;;;11.10;5.75;;;4.40;1.00;;;;;;5089036;28;20214;-78
2022/03/05 06:48:26;;;;;;;9.77;6.40;;;4.60;1.00;;;;;;5082069;28;20442;-77
2022/03/05 06:50:54;;;;;;;8.10;5.43;;;4.60;1.00;;;;;;5086890;28;20199;-76
2022/03/05 06:53:24;;;;;;;15.23;6.30;;;4.70;1.00;;;;;;5078338;28;21037;-77
2022/03/05 06:55:52;;;;;;;7.43;4.90;;;4.80;1.00;;;;;;5082896;28;20528;-73
2022/03/05 06:58:21;;;;;;;10.30;6.33;;;5.00;1.00;;;;;;5085987;28;20472;-77
2022/03/05 07:00:49;;;;;;;8.90;6.03;;;5.00;1.00;;;;;;5087795;28;20465;-76
2022/03/05 07:03:17;;;;;;;12.60;7.05;;;5.10;1.00;;;;;;5089772;28;20485;-76
2022/03/05 07:05:46;;;;;;;12.33;7.30;;;5.10;1.00;;;;;;5084107;28;20571;-79
2022/03/05 07:08:14;;;;;;;16.35;9.63;;;5.10;1.00;;;;;;5081945;28;20568;-77
2022/03/05 07:10:44;;;;;;;10.95;6.70;;;5.20;1.00;;;;;;5088866;28;20204;-77
2022/03/05 07:13:12;;;;;;;13.47;7.73;;;5.30;1.00;;;;;;5078330;28;20257;-78
2022/03/05 07:15:40;;;;;;;13.13;7.00;;;5.40;1.00;;;;;;5090045;28;20475;-77
2022/03/05 07:18:09;;;;;;;14.10;8.50;;;5.50;1.00;;;;;;5085527;28;20283;-77
2022/03/05 07:20:37;;;;;;;11.10;7.22;;;5.70;1.00;;;;;;5086603;28;20452;-75
2022/03/05 07:23:06;;;;;;;12.63;7.57;;;5.70;1.00;;;;;;5083279;28;20211;-76
2022/03/05 07:25:39;;;;;;;13.40;7.75;;;5.70;1.00;;;;;;5085008;28;20444;-78
2022/03/05 07:28:10;;;;;;;12.67;7.30;;;5.90;1.00;;;;;;5082501;28;20208;-78
2022/03/05 07:30:38;;;;;;;13.57;8.67;;;6.00;1.00;;;;;;5090450;28;20456;-77
2022/03/05 07:33:12;;;;;;;14.37;7.77;;;6.00;1.00;;;;;;5083271;28;20918;-77
2022/03/05 07:35:40;;;;;;;19.30;8.60;;;6.00;1.00;;;;;;5087865;28;20470;-76
2022/03/05 07:38:08;;;;;;;13.97;7.33;;;6.00;1.00;;;;;;5083667;28;20446;-76
2022/03/05 07:40:37;;;;;;;12.30;8.00;;;6.10;1.00;;;;;;5084223;28;20461;-77
2022/03/05 07:43:05;;;;;;;12.20;7.27;;;6.10;1.00;;;;;;5084572;28;20465;-76
2022/03/05 07:45:34;;;;;;;13.53;7.30;;;6.10;1.00;;;;;;5089172;28;20539;-76
2022/03/05 07:48:03;;;;;;;11.73;7.00;;;6.30;1.00;;;;;;5088922;28;20468;-77
2022/03/05 07:50:31;;;;;;;15.50;7.90;;;6.40;1.00;;;;;;5086438;28;20457;-76
2022/03/05 07:52:59;;;;;;;9.97;7.70;;;6.80;1.00;;;;;;5075399;28;20540;-77
2022/03/05 07:55:28;;;;;;;10.07;6.17;;;6.60;1.00;;;;;;5087870;28;20700;-79
2022/03/05 07:57:56;;;;;;;12.13;7.80;;;6.70;1.00;;;;;;5072673;28;20460;-77
2022/03/05 08:00:24;;;;;;;15.40;8.10;;;6.70;1.00;;;;;;5073789;28;20534;-79
2022/03/05 08:02:54;;;;;;;12.73;7.77;;;6.90;1.00;;;;;;5081607;28;20450;-76
2022/03/05 08:05:23;;;;;;;12.87;7.47;;;7.00;1.00;;;;;;5090487;28;20462;-77
2022/03/05 08:07:53;;;;;;;12.03;7.60;;;7.20;1.00;;;;;;5086046;28;20473;-76
2022/03/05 08:10:22;;;;;;;12.50;7.00;;;7.20;1.00;;;;;;5086091;28;20455;-74
2022/03/05 08:12:50;;;;;;;13.23;8.10;;;7.30;1.00;;;;;;5087924;28;20974;-76
2022/03/05 08:15:18;;;;;;;12.23;8.10;;;7.40;1.00;;;;;;5089602;28;20469;-76
2022/03/05 08:17:51;;;;;;;14.20;8.90;;;8.00;1.00;;;;;;5085499;28;20644;-78
2022/03/05 08:20:21;;;;;;;14.90;7.67;;;8.00;1.00;;;;;;5090279;28;21177;-78
2022/03/05 08:22:50;;;;;;;12.70;7.47;;;8.60;1.00;;;;;;5088017;28;20448;-78
2022/03/05 08:25:18;;;;;;;13.35;8.13;;;8.60;1.00;;;;;;5090672;28;20450;-78
2022/03/05 08:27:46;;;;;;;14.63;8.93;;;8.90;1.00;;;;;;5085920;28;20206;-76
2022/03/05 08:30:16;;;;;;;10.63;7.27;;;9.00;1.00;;;;;;5090709;28;20457;-76
2022/03/05 08:32:44;;;;;;;13.90;7.30;;;9.20;1.00;;;;;;5090034;28;20455;-77
2022/03/05 08:35:13;;;;;;;12.73;7.60;;;9.40;1.00;;;;;;5088294;28;20460;-77
2022/03/05 08:37:43;;;;;;;12.73;7.67;;;9.50;1.00;;;;;;5078385;28;21230;-77
2022/03/05 08:40:13;;;;;;;14.30;8.73;;;9.70;1.00;;;;;;5086058;28;21244;-76
2022/03/05 08:42:42;;;;;;;11.27;7.63;;;9.90;1.00;;;;;;5081177;28;20440;-77
2022/03/05 08:45:11;;;;;;;12.07;7.53;;;9.90;1.00;;;;;;5086792;28;20449;-76
2022/03/05 08:47:41;;;;;;;11.53;7.03;;;9.80;1.00;;;;;;5082490;28;20461;-76
2022/03/05 08:50:10;;;;;;;11.63;7.87;;;9.80;1.00;;;;;;5084371;28;20457;-76
2022/03/05 08:52:39;;;;;;;12.60;7.40;;;9.70;1.00;;;;;;5082395;28;21034;-73
2022/03/05 08:55:10;;;;;;;8.50;6.80;;;9.80;1.00;;;;;;5079378;28;20445;-75
2022/03/05 08:57:39;;;;;;;11.50;7.50;;;9.80;1.00;;;;;;5079595;28;20482;-76
2022/03/05 09:00:11;;;;;;;8.80;6.77;;;9.80;1.00;;;;;;5080314;28;20446;-75
2022/03/05 09:02:39;;;;;;;12.53;7.20;;;9.90;1.00;;;;;;5086715;28;20459;-75
2022/03/05 09:05:08;;;;;;;10.50;7.27;;;10.00;1.00;;;;;;5077879;28;20444;-77
2022/03/05 09:07:37;;;;;;;12.40;8.13;;;9.90;1.00;;;;;;5080783;28;20451;-76
2022/03/05 09:10:06;;;;;;;12.40;6.93;;;10.00;1.00;;;;;;5083538;28;20558;-75
2022/03/05 09:12:35;;;;;;;9.70;6.30;;;10.10;1.00;;;;;;5079285;28;20463;-75
2022/03/05 09:15:05;;;;;;;11.30;7.72;;;10.10;1.00;;;;;;5089122;28;20441;-74
2022/03/05 09:17:33;;;;;;;11.03;6.10;;;10.30;1.00;;;;;;5087797;28;20211;-75
2022/03/05 09:20:01;;;;;;;11.30;7.87;;;10.20;1.00;;;;;;5082091;28;20461;-75
2022/03/05 09:22:30;;;;;;;11.18;7.80;;;10.20;1.00;;;;;;5088412;28;20958;-75
2022/03/05 09:24:58;;;;;;;11.70;7.77;;;10.50;1.00;;;;;;5090637;28;20203;-76
2022/03/05 09:27:29;;;;;;;11.87;6.90;;;10.60;1.00;;;;;;5083812;28;20469;-74
2022/03/05 09:29:59;;;;;;;10.07;6.73;;;10.70;1.00;;;;;;5080526;28;20476;-75
2022/03/05 09:32:27;;;;;;;9.90;6.40;;;10.70;1.00;;;;;;5089651;28;20466;-74
2022/03/05 09:34:59;;;;;;;10.23;6.17;;;10.90;1.00;;;;;;5088778;28;20452;-73
2022/03/05 09:37:30;;;;;;;8.70;6.60;;;11.00;1.00;;;;;;5085233;28;20546;-75
2022/03/05 09:39:58;;;;;;;11.70;6.60;;;10.70;1.00;;;;;;5088385;28;20436;-76
2022/03/05 09:42:27;;;;;;;12.00;7.70;;;10.80;1.00;;;;;;5089000;28;20458;-76
2022/03/05 09:44:55;;;;;;;7.30;4.90;;;10.90;1.00;;;;;;5086568;28;20456;-77
2022/03/05 09:47:26;;;;;;;10.05;6.75;;;11.30;1.00;;;;;;5088369;28;20891;-76
2022/03/05 09:49:55;;;;;;;9.47;6.23;;;11.50;1.00;;;;;;5088004;28;20269;-74
2022/03/05 09:52:23;;;;;;;8.13;6.47;;;11.80;1.00;;;;;;5087756;28;20448;-79
2022/03/05 09:54:51;;;;;;;9.30;6.90;;;12.00;1.00;;;;;;5091147;28;20596;-78
2022/03/05 09:57:19;;;;;;;9.20;5.27;;;12.00;1.00;;;;;;5083917;28;20477;-78
2022/03/05 09:59:47;;;;;;;11.20;7.00;;;12.30;1.00;;;;;;5083640;28;20455;-78
2022/03/05 10:02:18;;;;;;;12.13;6.40;;;12.40;1.00;;;;;;5083654;28;20532;-78
2022/03/05 10:04:48;;;;;;;6.60;5.13;;;12.60;1.00;;;;;;5088191;28;20975;-78
2022/03/05 10:07:18;;;;;;;9.00;5.97;;;12.50;1.00;;;;;;5088086;28;20477;-82
2022/03/05 10:09:48;;;;;;;11.40;6.47;;;12.60;1.00;;;;;;5085779;28;20454;-81
2022/03/05 10:12:31;;;;;;;8.60;6.67;;;12.50;1.00;;;;;;5084317;28;20450;-81
2022/03/05 10:15:08;;;;;;;10.77;6.27;;;12.70;1.00;;;;;;5076327;28;21058;-80
2022/03/05 10:17:51;;;;;;;11.70;6.70;;;13.00;1.00;;;;;;5080296;28;20559;-83
2022/03/05 10:20:22;;;;;;;8.47;6.90;;;13.20;1.00;;;;;;5076176;28;20461;-80
2022/03/05 10:22:59;;;;;;;9.87;6.07;;;13.40;1.00;;;;;;5079169;28;20472;-80
2022/03/05 10:25:36;;;;;;;9.93;5.33;;;13.60;1.00;;;;;;5078398;28;20484;-81
2022/03/05 10:28:07;;;;;;;11.57;6.73;;;13.40;1.00;;;;;;5074534;28;20471;-80
2022/03/05 10:30:37;;;;;;;8.03;4.93;;;13.50;1.00;;;;;;5079994;28;20479;-79
2022/03/05 10:33:07;;;;;;;7.63;6.20;;;13.60;1.00;;;;;;5081506;28;20460;-81
2022/03/05 10:35:36;;;;;;;8.70;5.90;;;13.80;1.00;;;;;;5074264;28;21038;-82
2022/03/05 10:38:04;;;;;;;7.67;6.23;;;13.50;1.00;;;;;;5073813;28;20465;-77
2022/03/05 10:40:35;;;;;;;8.23;5.60;;;13.00;1.00;;;;;;5083692;28;20448;-79
2022/03/05 10:43:06;;;;;;;8.17;5.50;;;13.20;1.00;;;;;;5080315;28;20511;-81
2022/03/05 10:45:52;;;;;;;9.93;6.80;;;13.10;1.00;;;;;;5080251;28;20554;-78
2022/03/05 10:48:22;;;;;;;10.57;6.63;;;13.40;1.00;;;;;;5078530;28;20479;-79
2022/03/05 10:50:58;;;;;;;7.07;5.90;;;13.50;1.00;;;;;;5072172;28;20481;-78
2022/03/05 10:53:41;;;;;;;9.00;6.07;;;13.40;1.00;;;;;;5078031;28;20518;-78
2022/03/05 10:56:30;;;;;;;10.40;6.27;;;13.60;1.00;;;;;;5085867;28;20474;-78
2022/03/05 10:59:00;;;;;;;9.53;5.57;;;13.90;1.00;;;;;;5080833;28;20514;-79
2022/03/05 11:01:29;;;;;;;7.50;6.10;;;14.00;1.00;;;;;;5076417;28;20459;-78
2022/03/05 11:03:57;;;;;;;6.93;5.57;;;14.30;1.00;;;;;;5082900;28;20448;-78
2022/03/05 11:06:27;;;;;;;8.23;5.67;;;14.40;1.00;;;;;;5083063;28;20558;-77
2022/03/05 11:08:57;;;;;;;7.20;5.90;;;14.80;1.00;;;;;;5079107;28;20444;-78
2022/03/05 11:11:26;;;;;;;7.93;5.97;;;14.90;1.00;;;;;;5089753;28;21281;-79
2022/03/05 11:13:54;;;;;;;7.70;5.57;;;14.90;1.00;;;;;;5085312;28;20994;-78
2022/03/05 11:16:23;;;;;;;7.60;5.87;;;14.70;1.00;;;;;;5080351;28;20985;-78
2022/03/05 11:18:51;;;;;;;8.20;6.07;;;14.20;1.00;;;;;;5086716;28;20462;-79
2022/03/05 11:21:19;;;;;;;8.70;5.10;;;14.30;1.00;;;;;;5089127;28;20456;-79
2022/03/05 11:23:51;;;;;;;7.07;4.93;;;14.70;1.00;;;;;;5084780;28;20452;-77
2022/03/05 11:26:19;;;;;;;7.53;5.00;;;15.00;1.00;;;;;;5087625;28;20884;-78
2022/03/05 11:28:50;;;;;;;6.60;4.67;;;15.30;1.00;;;;;;5086631;28;20444;-77
2022/03/05 11:31:19;;;;;;;10.13;5.63;;;15.50;1.00;;;;;;5085247;28;20561;-77
2022/03/05 11:33:49;;;;;;;8.50;5.17;;;16.00;1.00;;;;;;5081597;28;20439;-77
2022/03/05 11:36:31;;;;;;;6.73;4.90;;;16.00;1.00;;;;;;5089638;28;20537;-77
2022/03/05 11:39:16;;;;;;;5.10;3.80;;;15.90;1.00;;;;;;5084451;28;20453;-78
2022/03/05 11:42:08;;;;;;;7.20;4.83;;;15.80;1.00;;;;;;5081392;28;20453;-79
2022/03/05 11:44:42;;;;;;;6.70;5.15;;;15.50;1.00;;;;;;5078251;28;21006;-78
2022/03/05 11:47:29;;;;;;;8.17;4.63;;;15.30;1.00;;;;;;5082328;28;20233;-77
2022/03/05 11:50:23;;;;;;;7.47;4.77;;;15.00;1.00;;;;;;5082013;28;20477;-79
2022/03/05 11:53:06;;;;;;;5.90;4.10;;;14.60;1.00;;;;;;5080955;28;20465;-75
2022/03/05 11:55:41;;;;;;;5.87;4.87;;;14.40;1.00;;;;;;5083216;28;20578;-78
2022/03/05 11:58:32;;;;;;;5.45;3.95;;;14.00;1.00;;;;;;5085708;28;20471;-79
2022/03/05 12:01:33;;;;;;;5.53;3.80;;;13.70;1.00;;;;;;5080672;28;20208;-79
2022/03/05 12:04:22;;;;;;;6.87;4.80;;;13.50;1.00;;;;;;5084888;28;20525;-78
2022/03/05 12:07:02;;;;;;;6.83;4.40;;;13.20;1.00;;;;;;5084128;28;20509;-78
2022/03/05 12:09:53;;;;;;;7.37;4.40;;;13.20;1.00;;;;;;5081807;28;20459;-79
2022/03/05 12:12:23;;;;;;;5.40;3.80;;;13.20;1.00;;;;;;5083684;28;20468;-78
2022/03/05 12:15:13;;;;;;;7.30;4.30;;;13.10;1.00;;;;;;5082470;28;20908;-78
2022/03/05 12:17:52;;;;;;;4.80;3.70;;;13.30;1.00;;;;;;5084680;28;20474;-80
2022/03/05 12:20:26;;;;;;;6.53;4.13;;;13.10;1.00;;;;;;5084590;28;20542;-76
2022/03/05 12:22:58;;;;;;;7.47;4.60;;;12.90;1.00;;;;;;5089617;28;20457;-75
2022/03/05 12:25:28;;;;;;;7.28;4.70;;;13.00;1.00;;;;;;5085328;28;20447;-78
2022/03/05 12:27:58;;;;;;;5.70;4.00;;;13.20;1.00;;;;;;5085265;28;20274;-78
2022/03/05 12:30:31;;;;;;;4.80;3.33;;;13.10;1.00;;;;;;5086979;28;20472;-79
2022/03/05 12:33:04;;;;;;;5.50;3.40;;;13.30;1.00;;;;;;5092887;28;20442;-76
2022/03/05 12:35:34;;;;;;;5.30;3.60;;;13.00;1.00;;;;;;5094009;28;21047;-78
2022/03/05 12:38:03;;;;;;;4.40;3.23;;;12.90;1.00;;;;;;5093191;28;20501;-77
2022/03/05 12:40:32;;;;;;;4.23;3.37;;;12.70;1.00;;;;;;5082249;28;20525;-78
2022/03/05 12:43:05;;;;;;;4.77;3.70;;;12.90;1.00;;;;;;5085183;28;20458;-81
2022/03/05 12:45:36;;;;;;;5.00;3.70;;;12.90;1.00;;;;;;5081041;28;20475;-78
2022/03/05 12:48:09;;;;;;;4.20;3.80;;;13.00;1.00;;;;;;5077421;28;20459;-77
2022/03/05 12:50:39;;;;;;;4.67;3.30;;;13.00;1.00;;;;;;5083205;28;20541;-79
2022/03/05 12:53:09;;;;;;;5.97;3.70;;;13.20;1.00;;;;;;5081079;28;20458;-79
2022/03/05 12:55:42;;;;;;;5.50;4.13;;;13.30;1.00;;;;;;5078681;28;20480;-78
2022/03/05 12:58:14;;;;;;;6.27;3.90;;;13.40;1.00;;;;;;5086935;28;20456;-78
2022/03/05 13:00:44;;;;;;;8.70;4.20;;;13.20;1.00;;;;;;5084911;28;20478;-79
2022/03/05 13:03:13;;;;;;;5.85;4.80;;;13.00;1.00;;;;;;5086401;28;20864;-77
2022/03/05 13:05:42;;;;;;;5.80;4.10;;;13.10;1.00;;;;;;5080043;28;20240;-78
2022/03/05 13:08:18;;;;;;;6.15;4.38;;;13.10;1.00;;;;;;5083930;28;20383;-78
2022/03/05 13:10:46;;;;;;;5.07;4.30;;;13.00;1.00;;;;;;5079297;28;20227;-79
2022/03/05 13:13:16;;;;;;;5.57;4.20;;;12.70;1.00;;;;;;5079480;28;21190;-77
2022/03/05 13:15:44;;;;;;;4.97;4.27;;;12.30;1.00;;;;;;5079485;28;20345;-78
2022/03/05 13:18:15;;;;;;;6.40;4.47;;;12.20;1.00;;;;;;5081694;28;20460;-78
2022/03/05 13:20:44;;;;;;;7.23;4.50;;;12.30;1.00;;;;;;5085323;28;20474;-80